createdAt,value
2019-04-05T00:01:36.337Z,7.31
2019-04-05T00:04:05.589Z,7.37
2019-04-05T00:06:34.725Z,7.37
2019-04-05T00:09:05.304Z,7.38
2019-04-05T00:11:34.413Z,7.37
2019-04-05T00:14:03.565Z,7.37
2019-04-05T00:16:32.697Z,7.37
2019-04-05T00:19:01.851Z,7.41
2019-04-05T00:21:30.975Z,7.41
2019-04-05T00:24:00.140Z,7.41
2019-04-05T00:26:29.271Z,7.39
2019-04-05T00:28:58.441Z,7.38
2019-04-05T00:31:27.622Z,7.38
2019-04-05T00:33:56.756Z,7.37
2019-04-05T00:36:25.913Z,7.37
2019-04-05T00:38:55.044Z,7.35
2019-04-05T00:41:24.182Z,7.35
2019-04-05T00:43:53.362Z,7.37
2019-04-05T00:46:22.502Z,7.36
2019-04-05T00:48:51.728Z,7.35
2019-04-05T00:51:20.920Z,7.38
2019-04-05T00:53:50.054Z,7.39
2019-04-05T00:56:19.203Z,7.40
2019-04-05T00:58:48.454Z,7.40
2019-04-05T01:01:17.614Z,7.41
2019-04-05T01:03:46.747Z,7.45
2019-04-05T01:06:15.889Z,7.44
2019-04-05T01:08:45.038Z,7.43
2019-04-05T01:11:14.344Z,7.42
2019-04-05T01:13:43.476Z,7.43
2019-04-05T01:16:12.624Z,7.44
2019-04-05T01:18:41.768Z,7.42
2019-04-05T01:21:13.874Z,7.42
2019-04-05T01:23:43.252Z,7.42
2019-04-05T01:26:13.844Z,7.42
2019-04-05T01:28:43.010Z,7.42
2019-04-05T01:31:12.148Z,7.42
2019-04-05T01:33:41.380Z,7.43
2019-04-05T01:36:10.549Z,7.41
2019-04-05T01:38:39.684Z,7.41
2019-04-05T01:41:09.180Z,7.40
2019-04-05T01:43:38.317Z,7.39
2019-04-05T01:46:08.056Z,7.36
2019-04-05T01:48:37.206Z,7.38
2019-04-05T01:51:07.173Z,7.38
2019-04-05T01:53:36.294Z,7.37
2019-04-05T01:56:05.653Z,7.38
2019-04-05T01:58:34.804Z,7.38
2019-04-05T02:01:04.016Z,7.39
2019-04-05T02:03:33.165Z,7.39
2019-04-05T02:06:02.296Z,7.39
2019-04-05T02:08:31.525Z,7.39
2019-04-05T02:11:00.680Z,7.39
2019-04-05T02:13:29.858Z,7.38
2019-04-05T02:16:06.269Z,7.38
2019-04-05T02:18:29.885Z,7.38
2019-04-05T02:20:59.026Z,7.40
2019-04-05T02:23:28.162Z,7.27
2019-04-05T02:25:57.306Z,7.40
2019-04-05T02:28:26.477Z,7.38
2019-04-05T02:30:55.625Z,7.39
2019-04-05T02:33:24.775Z,7.40
2019-04-05T02:35:53.937Z,7.39
2019-04-05T02:38:23.100Z,7.38
2019-04-05T02:40:53.392Z,7.39
2019-04-05T02:43:24.181Z,7.38
2019-04-05T02:45:54.775Z,7.38
2019-04-05T02:48:25.453Z,7.36
2019-04-05T02:50:58.050Z,7.38
2019-04-05T02:53:28.153Z,7.34
2019-04-05T02:55:58.397Z,7.37
2019-04-05T02:58:28.198Z,7.38
2019-04-05T03:00:58.665Z,7.37
2019-04-05T03:03:28.350Z,7.37
2019-04-05T03:05:57.685Z,7.37
2019-04-05T03:08:26.812Z,7.37
2019-04-05T03:11:04.519Z,7.38
2019-04-05T03:13:36.837Z,7.40
2019-04-05T03:16:09.735Z,7.40
2019-04-05T03:18:42.197Z,7.40
2019-04-05T03:21:12.343Z,7.39
2019-04-05T03:23:44.024Z,7.39
2019-04-05T03:26:16.298Z,7.40
2019-04-05T03:28:48.454Z,7.40
2019-04-05T03:31:23.960Z,7.39
2019-04-05T03:33:49.645Z,7.40
2019-04-05T03:36:19.288Z,7.37
2019-04-05T03:38:48.789Z,7.38
2019-04-05T03:41:18.626Z,7.39
2019-04-05T03:43:47.845Z,7.38
2019-04-05T03:46:16.957Z,7.37
2019-04-05T03:48:48.006Z,7.37
2019-04-05T03:51:17.254Z,7.37
2019-04-05T03:53:46.488Z,7.37
2019-04-05T03:56:15.972Z,7.37
2019-04-05T03:58:45.166Z,7.36
2019-04-05T04:01:15.134Z,7.36
2019-04-05T04:03:44.659Z,7.36
2019-04-05T04:06:13.965Z,7.34
2019-04-05T04:08:43.065Z,7.31
2019-04-05T04:11:12.193Z,7.33
2019-04-05T04:13:41.743Z,7.32
2019-04-05T04:16:10.839Z,7.31
2019-04-05T04:18:39.968Z,7.30
2019-04-05T04:21:33.386Z,7.29
2019-04-05T04:24:03.152Z,7.28
2019-04-05T04:26:33.392Z,7.27
2019-04-05T04:29:02.524Z,7.28
2019-04-05T04:31:31.862Z,7.31
2019-04-05T04:34:01.468Z,7.30
2019-04-05T04:36:30.819Z,7.30
2019-04-05T04:39:00.045Z,7.30
2019-04-05T04:41:31.873Z,7.30
2019-04-05T04:44:00.723Z,7.30
2019-04-05T04:46:30.076Z,7.32
2019-04-05T04:48:59.580Z,7.31
2019-04-05T04:51:29.330Z,7.29
2019-04-05T04:53:59.106Z,7.30
2019-04-05T04:56:28.537Z,7.27
2019-04-05T04:58:57.826Z,7.28
2019-04-05T05:01:27.041Z,7.30
2019-04-05T05:03:56.237Z,7.28
2019-04-05T05:06:25.316Z,7.31
2019-04-05T05:08:54.609Z,7.30
2019-04-05T05:11:24.231Z,7.33
2019-04-05T05:13:53.369Z,7.32
2019-04-05T05:16:22.787Z,7.29
2019-04-05T05:18:51.925Z,7.28
2019-04-05T05:21:21.595Z,7.28
2019-04-05T05:23:51.301Z,7.27
2019-04-05T05:26:20.695Z,7.31
2019-04-05T05:28:50.247Z,7.30
2019-04-05T05:31:19.470Z,7.29
2019-04-05T05:33:48.799Z,7.28
2019-04-05T05:36:18.233Z,7.29
2019-04-05T05:38:47.377Z,7.29
2019-04-05T05:41:16.518Z,7.29
2019-04-05T05:43:45.637Z,7.30
2019-04-05T05:46:14.771Z,7.29
2019-04-05T05:48:44.629Z,7.32
2019-04-05T05:51:14.772Z,7.32
2019-04-05T05:53:43.933Z,7.31
2019-04-05T05:56:13.081Z,7.30
2019-04-05T05:58:42.213Z,7.32
2019-04-05T06:01:11.537Z,7.31
2019-04-05T06:03:40.659Z,7.30
2019-04-05T06:06:09.761Z,7.31
2019-04-05T06:08:38.944Z,7.30
2019-04-05T06:11:08.088Z,7.32
2019-04-05T06:13:37.193Z,7.33
2019-04-05T06:16:06.364Z,7.34
2019-04-05T06:18:39.165Z,7.34
2019-04-05T06:21:08.334Z,7.35
2019-04-05T06:23:37.453Z,7.34
2019-04-05T06:26:06.594Z,7.34
2019-04-05T06:28:35.735Z,7.35
2019-04-05T06:31:04.844Z,7.38
2019-04-05T06:33:35.807Z,7.35
2019-04-05T06:36:04.873Z,7.36
2019-04-05T06:38:33.998Z,7.38
2019-04-05T06:41:03.150Z,7.38
2019-04-05T06:43:32.267Z,7.38
2019-04-05T06:46:01.437Z,7.41
2019-04-05T06:48:30.711Z,7.39
2019-04-05T06:50:59.892Z,7.38
2019-04-05T06:53:29.055Z,7.37
2019-04-05T06:55:59.757Z,7.36
2019-04-05T06:58:29.470Z,7.37
2019-04-05T07:00:59.046Z,7.39
2019-04-05T07:03:28.199Z,7.39
2019-04-05T07:05:57.332Z,7.40
2019-04-05T07:08:26.488Z,7.43
2019-04-05T07:10:55.600Z,7.44
2019-04-05T07:13:27.283Z,7.45
2019-04-05T07:15:55.653Z,7.46
2019-04-05T07:18:34.070Z,7.47
2019-04-05T07:20:57.924Z,7.48
2019-04-05T07:23:26.776Z,7.49
2019-04-05T07:25:55.905Z,7.49
2019-04-05T07:28:25.387Z,7.48
2019-04-05T07:30:54.560Z,7.48
2019-04-05T07:33:23.704Z,7.50
2019-04-05T07:35:52.878Z,7.51
2019-04-05T07:38:22.000Z,7.52
2019-04-05T07:40:51.289Z,7.54
2019-04-05T07:43:20.416Z,7.55
2019-04-05T07:45:49.591Z,7.55
2019-04-05T07:48:18.736Z,7.56
2019-04-05T07:50:47.870Z,7.58
2019-04-05T07:53:17.010Z,7.59
2019-04-05T07:55:46.126Z,7.61
2019-04-05T07:58:15.268Z,7.60
2019-04-05T08:00:50.389Z,7.64
2019-04-05T08:03:20.352Z,7.65
2019-04-05T08:05:50.067Z,7.67
2019-04-05T08:08:51.280Z,7.68
2019-04-05T08:11:21.137Z,7.73
2019-04-05T08:13:52.660Z,7.73
2019-04-05T08:16:21.816Z,7.71
2019-04-05T08:18:57.524Z,7.74
2019-04-05T08:21:21.900Z,7.79
2019-04-05T08:23:51.080Z,7.78
2019-04-05T08:26:20.240Z,7.76
2019-04-05T08:28:49.352Z,7.78
2019-04-05T08:31:18.471Z,7.78
2019-04-05T08:33:47.605Z,7.77
2019-04-05T08:36:16.742Z,7.78
2019-04-05T08:38:45.892Z,7.78
2019-04-05T08:41:15.017Z,7.79
2019-04-05T08:43:46.971Z,7.79
2019-04-05T08:46:14.987Z,7.81
2019-04-05T08:48:44.303Z,7.80
2019-04-05T08:51:13.441Z,7.81
2019-04-05T08:53:42.568Z,7.82
2019-04-05T08:56:11.712Z,7.85
2019-04-05T08:58:40.841Z,7.84
2019-04-05T09:01:09.973Z,7.87
2019-04-05T09:03:39.125Z,7.87
2019-04-05T09:06:08.229Z,7.89
2019-04-05T09:08:37.378Z,7.90
2019-04-05T09:11:06.480Z,7.91
2019-04-05T09:13:35.682Z,7.93
2019-04-05T09:16:04.827Z,7.92
2019-04-05T09:18:33.918Z,7.95
2019-04-05T09:21:03.079Z,7.97
2019-04-05T09:23:32.202Z,7.95
2019-04-05T09:26:01.329Z,7.98
2019-04-05T09:28:30.469Z,7.98
2019-04-05T09:30:59.621Z,7.99
2019-04-05T09:33:28.720Z,7.97
2019-04-05T09:35:57.878Z,7.99
2019-04-05T09:38:27.016Z,8.00
2019-04-05T09:40:56.127Z,8.04
2019-04-05T09:43:25.265Z,8.05
2019-04-05T09:45:54.405Z,8.05
2019-04-05T09:48:23.529Z,8.06
2019-04-05T09:50:52.657Z,8.09
2019-04-05T09:53:21.770Z,8.10
2019-04-05T09:55:50.943Z,8.10
2019-04-05T09:58:20.056Z,8.12
2019-04-05T10:00:49.213Z,8.11
2019-04-05T10:03:18.326Z,8.12
2019-04-05T10:05:49.532Z,8.12
2019-04-05T10:08:18.742Z,8.13
2019-04-05T10:10:47.842Z,8.15
2019-04-05T10:13:18.622Z,8.14
2019-04-05T10:15:47.750Z,8.15
2019-04-05T10:18:16.870Z,8.16
2019-04-05T10:20:46.014Z,8.20
2019-04-05T10:23:15.142Z,8.22
2019-04-05T10:25:44.317Z,8.22
2019-04-05T10:28:13.428Z,8.22
2019-04-05T10:30:42.642Z,8.23
2019-04-05T10:33:11.800Z,8.25
2019-04-05T10:35:40.919Z,8.26
2019-04-05T10:38:10.040Z,8.26
2019-04-05T10:40:39.150Z,8.28
2019-04-05T10:43:08.355Z,8.28
2019-04-05T10:45:37.466Z,8.27
2019-04-05T10:48:06.591Z,8.28
2019-04-05T10:50:35.696Z,8.29
2019-04-05T10:53:05.096Z,8.31
2019-04-05T10:55:34.532Z,8.32
2019-04-05T10:58:03.833Z,8.34
2019-04-05T11:00:32.953Z,8.34
2019-04-05T11:03:02.090Z,8.34
2019-04-05T11:05:31.226Z,8.36
2019-04-05T11:08:00.361Z,8.37
2019-04-05T11:10:29.569Z,8.39
2019-04-05T11:12:58.723Z,8.40
2019-04-05T11:15:28.816Z,8.40
2019-04-05T11:17:58.857Z,8.41
2019-04-05T11:20:27.997Z,8.42
2019-04-05T11:22:57.137Z,8.44
2019-04-05T11:25:26.227Z,8.46
2019-04-05T11:27:55.357Z,8.49
2019-04-05T11:30:40.701Z,8.50
2019-04-05T11:33:09.989Z,8.52
2019-04-05T11:35:39.115Z,8.53
2019-04-05T11:38:08.461Z,8.56
2019-04-05T11:40:38.781Z,8.58
2019-04-05T11:43:07.997Z,8.60
2019-04-05T11:45:37.221Z,8.61
2019-04-05T11:48:07.134Z,8.60
2019-04-05T11:50:36.361Z,8.61
2019-04-05T11:53:05.513Z,8.61
2019-04-05T11:55:34.647Z,8.63
2019-04-05T11:58:03.776Z,8.64
2019-04-05T12:00:51.872Z,8.64
2019-04-05T12:03:21.447Z,8.64
2019-04-05T12:05:50.647Z,8.67
2019-04-05T12:08:19.882Z,8.69
2019-04-05T12:10:49.023Z,8.69
2019-04-05T12:13:37.087Z,8.72
2019-04-05T12:16:07.292Z,8.73
2019-04-05T12:18:37.078Z,8.77
2019-04-05T12:21:06.229Z,8.39
2019-04-05T12:23:35.394Z,8.82
2019-04-05T12:26:05.008Z,8.86
2019-04-05T12:28:34.142Z,8.88
2019-04-05T12:31:03.262Z,8.89
2019-04-05T12:33:32.403Z,8.91
2019-04-05T12:36:01.560Z,8.92
2019-04-05T12:38:32.485Z,8.93
2019-04-05T12:41:03.620Z,8.92
2019-04-05T12:43:33.360Z,8.91
2019-04-05T12:46:02.590Z,8.92
2019-04-05T12:48:31.723Z,8.91
2019-04-05T12:51:01.791Z,8.91
2019-04-05T12:53:32.016Z,8.91
2019-04-05T12:56:01.141Z,8.89
2019-04-05T12:58:32.705Z,8.89
2019-04-05T13:01:01.155Z,8.90
2019-04-05T13:03:30.300Z,8.89
2019-04-05T13:05:59.452Z,8.88
2019-04-05T13:08:28.580Z,8.89
2019-04-05T13:10:57.699Z,8.91
2019-04-05T13:13:27.747Z,8.92
2019-04-05T13:15:59.365Z,8.91
2019-04-05T13:18:30.716Z,8.92
2019-04-05T13:21:00.232Z,8.89
2019-04-05T13:23:29.463Z,8.88
2019-04-05T13:25:58.584Z,8.86
2019-04-05T13:28:27.728Z,8.86
2019-04-05T13:30:56.861Z,8.86
2019-04-05T13:33:28.865Z,8.87
2019-04-05T13:35:57.280Z,8.88
2019-04-05T13:38:26.435Z,8.88
2019-04-05T13:40:56.921Z,8.88
2019-04-05T13:43:26.326Z,8.87
2019-04-05T13:45:55.434Z,8.88
2019-04-05T13:48:24.610Z,8.90
2019-04-05T13:50:53.746Z,8.90
2019-04-05T13:53:22.918Z,8.08
2019-04-05T13:55:52.042Z,8.87
2019-04-05T13:58:21.230Z,8.88
2019-04-05T14:00:50.341Z,8.88
2019-04-05T14:03:20.907Z,8.91
2019-04-05T14:05:54.019Z,8.92
2019-04-05T14:08:21.100Z,8.94
2019-04-05T14:10:50.228Z,8.94
2019-04-05T14:13:19.338Z,8.98
2019-04-05T14:15:48.502Z,8.97
2019-04-05T14:18:20.576Z,8.99
2019-04-05T14:20:50.045Z,9.00
2019-04-05T14:23:23.292Z,9.02
2019-04-05T14:25:50.194Z,9.06
2019-04-05T14:28:19.336Z,9.09
2019-04-05T14:30:48.483Z,9.13
2019-04-05T14:33:17.611Z,9.17
2019-04-05T14:35:46.797Z,9.21
2019-04-05T14:38:15.932Z,9.24
2019-04-05T14:40:45.054Z,9.25
2019-04-05T14:43:14.985Z,9.26
2019-04-05T14:45:44.759Z,9.29
2019-04-05T14:48:13.925Z,9.29
2019-04-05T14:50:43.072Z,9.31
2019-04-05T14:53:12.172Z,9.30
2019-04-05T14:55:41.305Z,9.30
2019-04-05T14:58:10.815Z,8.90
2019-04-05T15:00:40.116Z,9.32
2019-04-05T15:03:09.247Z,9.32
2019-04-05T15:05:38.389Z,9.30
2019-04-05T15:08:07.553Z,9.31
2019-04-05T15:10:36.803Z,9.28
2019-04-05T15:13:05.936Z,9.26
2019-04-05T15:15:35.067Z,9.26
2019-04-05T15:18:04.175Z,9.26
2019-04-05T15:20:34.915Z,9.27
2019-04-05T15:23:04.167Z,9.27
2019-04-05T15:25:33.301Z,9.23
2019-04-05T15:28:02.467Z,9.16
2019-04-05T15:30:31.620Z,9.15
2019-04-05T15:33:03.404Z,9.16
2019-04-05T15:35:32.547Z,9.16
2019-04-05T15:38:02.268Z,9.18
2019-04-05T15:40:31.694Z,9.18
2019-04-05T15:43:00.873Z,9.18
2019-04-05T15:45:30.091Z,9.17
2019-04-05T15:47:59.215Z,9.16
2019-04-05T15:50:28.412Z,9.14
2019-04-05T15:52:59.623Z,9.12
2019-04-05T15:55:28.435Z,9.10
2019-04-05T15:57:57.655Z,9.11
2019-04-05T16:00:41.943Z,9.11
2019-04-05T16:03:11.239Z,9.11
2019-04-05T16:05:40.764Z,9.12
2019-04-05T16:08:09.882Z,9.12
2019-04-05T16:10:39.002Z,9.12
2019-04-05T16:13:08.987Z,9.12
2019-04-05T16:15:38.137Z,9.12
2019-04-05T16:18:07.267Z,9.12
2019-04-05T16:20:36.569Z,9.11
2019-04-05T16:23:05.749Z,9.10
2019-04-05T16:25:35.830Z,9.10
2019-04-05T16:28:05.357Z,9.08
2019-04-05T16:30:34.517Z,9.08
2019-04-05T16:33:03.637Z,9.06
2019-04-05T16:35:33.239Z,9.07
2019-04-05T16:38:02.354Z,9.07
2019-04-05T16:40:31.692Z,9.11
2019-04-05T16:43:02.907Z,9.11
2019-04-05T16:45:31.666Z,9.09
2019-04-05T16:48:00.804Z,9.10
2019-04-05T16:50:29.954Z,9.09
2019-04-05T16:52:59.095Z,9.09
2019-04-05T16:55:28.233Z,9.07
2019-04-05T16:57:57.379Z,9.07
2019-04-05T17:00:26.484Z,9.06
2019-04-05T17:02:55.635Z,9.05
2019-04-05T17:05:24.796Z,9.05
2019-04-05T17:07:53.942Z,9.05
2019-04-05T17:10:23.072Z,9.06
2019-04-05T17:12:52.265Z,9.06
2019-04-05T17:15:21.469Z,9.07
2019-04-05T17:17:50.609Z,9.07
2019-04-05T17:20:20.349Z,9.01
2019-04-05T17:22:58.168Z,9.08
2019-04-05T17:25:20.362Z,9.07
2019-04-05T17:27:49.483Z,9.07
2019-04-05T17:30:19.070Z,9.06
2019-04-05T17:32:48.242Z,9.06
2019-04-05T17:35:18.081Z,9.05
2019-04-05T17:37:47.281Z,9.05
2019-04-05T17:40:16.401Z,9.04
2019-04-05T17:42:45.542Z,9.02
2019-04-05T17:45:14.682Z,9.01
2019-04-05T17:47:43.809Z,9.02
2019-04-05T17:50:14.608Z,9.03
2019-04-05T17:52:43.941Z,8.98
2019-04-05T17:55:13.384Z,8.94
2019-04-05T17:57:42.503Z,8.91
2019-04-05T18:00:17.322Z,8.87
2019-04-05T18:02:46.467Z,8.85
2019-04-05T18:05:15.624Z,8.85
2019-04-05T18:07:44.753Z,8.85
2019-04-05T18:10:14.023Z,8.85
2019-04-05T18:12:43.158Z,8.83
2019-04-05T18:15:51.495Z,8.85
2019-04-05T18:18:07.991Z,8.84
2019-04-05T18:20:37.110Z,8.84
2019-04-05T18:23:06.257Z,8.84
2019-04-05T18:25:35.418Z,8.85
2019-04-05T18:28:04.558Z,8.83
2019-04-05T18:30:33.697Z,8.85
2019-04-05T18:33:02.898Z,8.84
2019-04-05T18:35:32.075Z,8.83
2019-04-05T18:38:01.259Z,8.83
2019-04-05T18:40:39.884Z,8.83
2019-04-05T18:43:01.517Z,8.83
2019-04-05T18:45:33.444Z,8.82
2019-04-05T18:48:02.141Z,8.82
2019-04-05T18:50:31.268Z,8.83
2019-04-05T18:53:00.441Z,8.81
2019-04-05T18:55:29.660Z,8.81
2019-04-05T18:57:58.791Z,8.82
2019-04-05T19:00:27.938Z,8.80
2019-04-05T19:02:57.107Z,8.79
2019-04-05T19:05:26.215Z,8.79
2019-04-05T19:07:55.361Z,8.80
2019-04-05T19:10:36.490Z,8.79
2019-04-05T19:12:55.487Z,8.79
2019-04-05T19:15:24.653Z,8.79
2019-04-05T19:17:53.813Z,8.79
2019-04-05T19:20:22.988Z,8.79
2019-04-05T19:22:52.121Z,8.76
2019-04-05T19:25:21.288Z,8.76
2019-04-05T19:27:50.403Z,8.74
2019-04-05T19:50:26.511Z,8.71
2019-04-05T19:52:55.629Z,8.69
2019-04-05T19:55:24.768Z,8.68
2019-04-05T19:57:53.883Z,8.68
2019-04-05T20:00:23.035Z,8.68
2019-04-05T20:02:52.161Z,8.66
2019-04-05T20:05:21.409Z,8.66
2019-04-05T20:07:50.533Z,8.65
2019-04-05T20:10:19.832Z,8.66
2019-04-05T20:12:48.911Z,8.66
2019-04-05T20:15:19.144Z,8.64
2019-04-05T20:17:48.267Z,8.64
2019-04-05T20:20:17.417Z,8.64
2019-04-05T20:22:46.555Z,8.64
2019-04-05T20:25:15.833Z,8.63
2019-04-05T20:27:45.027Z,8.62
2019-04-05T20:30:14.283Z,8.61
2019-04-05T20:32:43.413Z,8.61
2019-04-05T20:35:12.542Z,8.61
2019-04-05T20:37:41.681Z,8.61
2019-04-05T20:40:11.249Z,8.60
2019-04-05T20:42:40.388Z,8.60
2019-04-05T20:45:09.509Z,8.57
2019-04-05T20:47:38.685Z,8.57
2019-04-05T20:50:08.476Z,8.55
2019-04-05T20:52:37.613Z,8.57
2019-04-05T20:55:07.897Z,8.57
2019-04-05T20:57:37.044Z,8.53
2019-04-05T21:00:08.656Z,8.51
2019-04-05T21:02:37.776Z,8.52
2019-04-05T21:05:07.144Z,8.50
2019-04-05T21:07:36.211Z,8.51
2019-04-05T21:10:06.252Z,8.50
2019-04-05T21:12:35.383Z,8.49
2019-04-05T21:15:05.075Z,8.49
2019-04-05T21:17:34.212Z,8.47
2019-04-05T21:20:03.358Z,8.47
2019-04-05T21:22:32.504Z,8.48
2019-04-05T21:25:01.696Z,8.50
2019-04-05T21:27:30.902Z,8.48
2019-04-05T21:30:00.047Z,8.47
2019-04-05T21:32:29.202Z,8.46
2019-04-05T21:34:58.371Z,8.45
2019-04-05T21:37:27.511Z,8.44
2019-04-05T21:39:56.794Z,8.44
2019-04-05T21:42:25.955Z,8.44
2019-04-05T21:44:55.089Z,8.44
2019-04-05T21:47:24.260Z,8.44
2019-04-05T21:49:53.421Z,8.44
2019-04-05T21:52:22.601Z,8.45
2019-04-05T21:54:51.849Z,8.45
2019-04-05T21:57:20.969Z,8.45
2019-04-05T21:59:50.135Z,8.45
2019-04-05T22:02:19.983Z,8.45
2019-04-05T22:04:49.146Z,8.45
2019-04-05T22:07:18.689Z,8.44
2019-04-05T22:09:47.852Z,8.44
2019-04-05T22:12:17.861Z,8.43
2019-04-05T22:14:47.094Z,8.29
2019-04-05T22:17:16.240Z,8.43
2019-04-05T22:19:45.395Z,8.44
2019-04-05T22:22:14.562Z,8.43
2019-04-05T22:24:44.143Z,8.43
2019-04-05T22:27:13.364Z,8.43
2019-04-05T22:29:42.478Z,8.44
2019-04-05T22:32:11.775Z,8.43
2019-04-05T22:34:40.965Z,8.42
2019-04-05T22:37:10.108Z,8.43
2019-04-05T22:39:39.283Z,8.43
2019-04-05T22:42:08.480Z,8.01
2019-04-05T22:44:41.334Z,8.45
2019-04-05T22:47:08.491Z,8.45
2019-04-05T22:49:37.640Z,8.46
2019-04-05T22:52:06.810Z,8.49
2019-04-05T22:54:35.962Z,8.49
2019-04-05T22:57:05.141Z,8.49
2019-04-05T22:59:34.292Z,8.51
2019-04-05T23:02:03.479Z,8.51
2019-04-05T23:04:32.610Z,8.53
2019-04-05T23:07:01.800Z,8.53
2019-04-05T23:09:31.039Z,8.52
2019-04-05T23:12:00.209Z,8.51
2019-04-05T23:14:29.362Z,8.50
2019-04-05T23:16:58.531Z,8.50
2019-04-05T23:19:27.677Z,8.50
2019-04-05T23:21:56.871Z,8.49
2019-04-05T23:24:26.036Z,8.50
2019-04-05T23:26:55.206Z,8.50
2019-04-05T23:29:24.368Z,8.50
2019-04-05T23:31:53.540Z,8.50
2019-04-05T23:34:22.708Z,8.52
2019-04-05T23:36:51.894Z,8.52
2019-04-05T23:39:21.079Z,8.53
2019-04-05T23:41:50.229Z,8.54
2019-04-05T23:44:19.410Z,8.53
2019-04-05T23:46:48.572Z,8.53
2019-04-05T23:49:17.849Z,8.53
2019-04-05T23:51:47.011Z,8.50
2019-04-05T23:54:16.208Z,8.50
2019-04-05T23:56:45.382Z,8.61
2019-04-05T23:59:14.548Z,8.69
